Stonewall, Colorado
Current Conditions -  °F | °C
As of 11:12 PM on Saturday 25 Oct 2014 (Local Time) from KVTP Reporting Station
Clear Clear  
Wind Chill: 40°   Ceiling: Unl
Heat Index: 46°   Visibility: 10mi
Dew Point: 21°   Wind: 14mph
Humidity: 37%   Direction: 190°S
Pressure: 30.37"   Gusts: 25mph
Location:  37.1566°N, 104.956°W
Report Text: KVTP 260512Z AUTO 19012G22KT 10SM CLR 08/M06 A3037 RMK AO2
Loading
Personal Weather Stations






























Interactive Weather Map
Tropical Storm Tracking
New forecast layout! Learn more

10-Day Weather Forecast

Advertisements
Track Severe Weather on mobile